createdAt,value
2023-04-30T00:00:15.191Z,449.9231
2023-04-30T00:01:17.526Z,449.3846
2023-04-30T00:02:19.882Z,450.5000
2023-04-30T00:03:22.243Z,455.3077
2023-04-30T00:04:24.690Z,456.4615
2023-04-30T00:05:27.056Z,454.6667
2023-04-30T00:06:29.216Z,456.6667
2023-04-30T00:07:31.551Z,456.2500
2023-04-30T00:08:33.849Z,454.3846
2023-04-30T00:09:36.280Z,455.6923
2023-04-30T00:10:38.536Z,455.8462
2023-04-30T00:11:40.879Z,455.6154
2023-04-30T00:12:43.227Z,454.4615
2023-04-30T00:13:45.532Z,452.9167
2023-04-30T00:14:47.882Z,456.0000
2023-04-30T00:15:50.210Z,456.9231
2023-04-30T00:16:52.573Z,454.1538
2023-04-30T00:17:54.973Z,452.3077
2023-04-30T00:18:57.301Z,450.4615
2023-04-30T00:19:59.574Z,451.5000
2023-04-30T00:21:01.897Z,448.5385
2023-04-30T00:22:04.320Z,444.5385
2023-04-30T00:23:06.595Z,446.0000
2023-04-30T00:24:08.925Z,447.5385
2023-04-30T00:25:11.258Z,447.0000
2023-04-30T00:26:13.583Z,446.4615
2023-04-30T00:27:15.981Z,444.6154
2023-04-30T00:28:18.267Z,444.8462
2023-04-30T00:29:20.601Z,446.6154
2023-04-30T00:30:22.936Z,445.8462
2023-04-30T00:31:25.351Z,447.2308
2023-04-30T00:32:27.680Z,447.0769
2023-04-30T00:33:29.963Z,447.1538
2023-04-30T00:34:32.334Z,444.9231
2023-04-30T00:35:34.608Z,446.9231
2023-04-30T00:36:37.049Z,447.7692
2023-04-30T00:37:39.324Z,448.1538
2023-04-30T00:38:41.683Z,449.3077
2023-04-30T00:39:44.008Z,453.6154
2023-04-30T00:40:46.294Z,458.0769
2023-04-30T00:41:48.807Z,461.2308
2023-04-30T00:42:50.980Z,461.5000
2023-04-30T00:43:53.310Z,462.1667
2023-04-30T00:44:55.671Z,463.2308
2023-04-30T00:45:58.031Z,461.6923
2023-04-30T00:47:00.386Z,458.3846
2023-04-30T00:48:02.771Z,458.0000
2023-04-30T00:49:05.096Z,456.3846
2023-04-30T00:50:07.400Z,457.0000
2023-04-30T00:51:09.672Z,456.4615
2023-04-30T00:52:12.044Z,457.1538
2023-04-30T00:53:14.356Z,455.5385
2023-04-30T00:54:16.728Z,453.6923
2023-04-30T00:55:19.054Z,453.9231
2023-04-30T00:56:21.411Z,453.6923
2023-04-30T00:57:23.719Z,454.3846
2023-04-30T00:58:26.102Z,455.7692
2023-04-30T00:59:28.387Z,458.7692
2023-04-30T01:00:30.811Z,456.5833
2023-04-30T01:01:33.177Z,455.2308
2023-04-30T01:02:35.490Z,454.9231
2023-04-30T01:03:37.810Z,456.0769
2023-04-30T01:04:40.084Z,456.0000
2023-04-30T01:05:42.483Z,455.0000
2023-04-30T01:06:44.875Z,460.0769
2023-04-30T01:07:47.125Z,461.9231
2023-04-30T01:08:49.485Z,463.3846
2023-04-30T01:09:51.962Z,465.9231
2023-04-30T01:10:54.156Z,465.2308
2023-04-30T01:11:56.473Z,466.4615
2023-04-30T01:12:58.787Z,470.3077
2023-04-30T01:14:01.142Z,469.6923
2023-04-30T01:15:03.453Z,468.5385
2023-04-30T01:16:05.817Z,465.3846
2023-04-30T01:17:08.146Z,461.6923
2023-04-30T01:18:10.559Z,459.4615
2023-04-30T01:19:12.909Z,462.0769
2023-04-30T01:20:15.189Z,463.7692
2023-04-30T01:21:17.518Z,463.5385
2023-04-30T01:22:19.821Z,462.2308
2023-04-30T01:23:22.188Z,463.0769
2023-04-30T01:24:24.499Z,460.8333
2023-04-30T01:25:26.846Z,457.2308
2023-04-30T01:26:29.193Z,455.8462
2023-04-30T01:27:31.504Z,454.6923
2023-04-30T01:28:33.850Z,453.3333
2023-04-30T01:29:36.185Z,454.8462
2023-04-30T01:30:38.544Z,456.8462
2023-04-30T01:31:40.925Z,457.1538
2023-04-30T01:32:43.229Z,457.0000
2023-04-30T01:33:45.692Z,458.1538
2023-04-30T01:34:47.966Z,460.0000
2023-04-30T01:35:50.251Z,462.5454
2023-04-30T01:36:52.706Z,461.6923
2023-04-30T01:37:54.909Z,459.6923
2023-04-30T01:38:57.219Z,461.4615
2023-04-30T01:39:59.589Z,462.3077
2023-04-30T01:41:01.914Z,463.8462
2023-04-30T01:42:04.247Z,462.3333
2023-04-30T01:43:06.604Z,459.4615
2023-04-30T01:44:08.927Z,457.5385
2023-04-30T01:45:11.280Z,457.3846
2023-04-30T01:46:13.659Z,455.1538
2023-04-30T01:47:16.070Z,456.0769
2023-04-30T01:48:18.376Z,457.3077
2023-04-30T01:49:20.621Z,457.0000
2023-04-30T01:50:22.995Z,455.0769
2023-04-30T01:51:25.284Z,454.4167
2023-04-30T01:52:27.653Z,453.1538
2023-04-30T01:53:29.988Z,452.9231
2023-04-30T01:54:32.315Z,453.7692
2023-04-30T01:55:34.700Z,454.8462
2023-04-30T01:56:37.095Z,453.6154
2023-04-30T01:57:39.368Z,454.7692
2023-04-30T01:58:41.737Z,457.0769
2023-04-30T01:59:44.111Z,457.0000
2023-04-30T02:00:46.380Z,456.0000
2023-04-30T02:01:48.776Z,457.3846
2023-04-30T02:02:58.755Z,456.4615
2023-04-30T02:03:53.540Z,457.6364
2023-04-30T02:04:55.745Z,456.7500
2023-04-30T02:05:58.127Z,457.5385
2023-04-30T02:07:00.439Z,461.9231
2023-04-30T02:08:02.783Z,462.0000
2023-04-30T02:09:05.170Z,461.3077
2023-04-30T02:10:07.466Z,461.9231
2023-04-30T02:11:09.794Z,461.4615
2023-04-30T02:12:12.133Z,463.0000
2023-04-30T02:13:14.463Z,467.3846
2023-04-30T02:14:16.821Z,467.3846
2023-04-30T02:15:19.251Z,468.6923
2023-04-30T02:16:21.519Z,468.3846
2023-04-30T02:17:23.858Z,466.6154
2023-04-30T02:18:26.163Z,468.6154
2023-04-30T02:19:28.557Z,469.3077
2023-04-30T02:20:30.855Z,470.8462
2023-04-30T02:21:33.195Z,469.1538
2023-04-30T02:22:35.542Z,468.4615
2023-04-30T02:23:37.870Z,470.1538
2023-04-30T02:24:40.268Z,470.2308
2023-04-30T02:25:42.544Z,471.5385
2023-04-30T02:26:44.920Z,470.3077
2023-04-30T02:27:47.252Z,470.0769
2023-04-30T02:28:49.589Z,470.1538
2023-04-30T02:29:52.146Z,471.8333
2023-04-30T02:30:54.245Z,472.9167
2023-04-30T02:31:56.732Z,471.8462
2023-04-30T02:32:58.966Z,472.2308
2023-04-30T02:34:01.279Z,469.7692
2023-04-30T02:35:03.632Z,467.4615
2023-04-30T02:36:05.957Z,467.3077
2023-04-30T02:37:08.329Z,466.0000
2023-04-30T02:38:10.657Z,465.5385
2023-04-30T02:39:12.992Z,465.5385
2023-04-30T02:40:15.306Z,465.6923
2023-04-30T02:41:17.662Z,466.8462
2023-04-30T02:42:20.013Z,469.1538
2023-04-30T02:43:22.327Z,469.5385
2023-04-30T02:44:24.693Z,469.6154
2023-04-30T02:45:27.017Z,469.3846
2023-04-30T02:46:29.488Z,468.0000
2023-04-30T02:47:31.699Z,466.1667
2023-04-30T02:48:34.088Z,466.1538
2023-04-30T02:49:36.417Z,466.3846
2023-04-30T02:50:38.717Z,469.0000
2023-04-30T02:51:41.093Z,469.8462
2023-04-30T02:52:43.465Z,467.0000
2023-04-30T02:53:45.732Z,466.5385
2023-04-30T02:54:48.100Z,465.3846
2023-04-30T02:55:50.429Z,462.2308
2023-04-30T02:56:52.783Z,462.0000
2023-04-30T02:57:55.114Z,459.6923
2023-04-30T02:58:57.465Z,458.3077
2023-04-30T02:59:59.775Z,455.3846
2023-04-30T03:01:02.165Z,456.6923
2023-04-30T03:02:04.552Z,457.7692
2023-04-30T03:03:06.982Z,458.7692
2023-04-30T03:04:09.154Z,459.6923
2023-04-30T03:05:11.497Z,459.9231
2023-04-30T03:06:13.867Z,460.1538
2023-04-30T03:07:16.194Z,461.5385
2023-04-30T03:08:18.663Z,462.3846
2023-04-30T03:09:20.854Z,463.3077
2023-04-30T03:10:23.210Z,464.2308
2023-04-30T03:11:25.583Z,468.6923
2023-04-30T03:12:27.903Z,464.9231
2023-04-30T03:13:30.238Z,461.9231
2023-04-30T03:14:32.569Z,461.4615
2023-04-30T03:15:34.916Z,463.8462
2023-04-30T03:16:37.267Z,464.1538
2023-04-30T03:17:39.639Z,464.7692
2023-04-30T03:18:41.927Z,464.4615
2023-04-30T03:19:44.311Z,464.6923
2023-04-30T03:20:46.669Z,466.3077
2023-04-30T03:21:49.002Z,467.8462
2023-04-30T03:22:51.334Z,468.4615
2023-04-30T03:23:53.641Z,469.3846
2023-04-30T03:24:56.021Z,468.8462
2023-04-30T03:25:58.333Z,469.6154
2023-04-30T03:27:00.719Z,468.0769
2023-04-30T03:28:03.068Z,470.3077
2023-04-30T03:29:05.393Z,468.1538
2023-04-30T03:30:07.756Z,470.7692
2023-04-30T03:31:10.100Z,469.9231
2023-04-30T03:32:12.409Z,469.3846
2023-04-30T03:33:14.757Z,468.1538
2023-04-30T03:34:17.060Z,467.7692
2023-04-30T03:35:19.425Z,467.5385
2023-04-30T03:36:21.741Z,467.0000
2023-04-30T03:37:24.090Z,465.7500
2023-04-30T03:38:26.433Z,466.0769
2023-04-30T03:39:28.760Z,466.3077
2023-04-30T03:40:31.116Z,464.9231
2023-04-30T03:41:33.469Z,466.2308
2023-04-30T03:42:35.779Z,467.1538
2023-04-30T03:43:38.255Z,463.7692
2023-04-30T03:44:40.472Z,467.3846
2023-04-30T03:45:42.914Z,470.6923
2023-04-30T03:46:45.442Z,469.8462
2023-04-30T03:47:47.507Z,467.5833
2023-04-30T03:48:49.837Z,467.3077
2023-04-30T03:49:52.388Z,467.5385
2023-04-30T03:50:54.524Z,467.4167
2023-04-30T03:51:56.861Z,468.4615
2023-04-30T03:52:59.196Z,467.0833
2023-04-30T03:54:01.554Z,466.7692
2023-04-30T03:55:03.891Z,468.0000
2023-04-30T03:56:06.179Z,469.3846
2023-04-30T03:57:08.558Z,470.7692
2023-04-30T03:58:10.875Z,470.8462
2023-04-30T03:59:13.241Z,468.0769
2023-04-30T04:00:15.563Z,465.2308
2023-04-30T04:01:17.937Z,465.3077
2023-04-30T04:02:20.295Z,467.5385
2023-04-30T04:03:22.575Z,470.3077
2023-04-30T04:04:24.962Z,469.0769
2023-04-30T04:05:27.309Z,468.4167
2023-04-30T04:06:29.657Z,466.7692
2023-04-30T04:07:31.950Z,469.0769
2023-04-30T04:08:34.288Z,468.3846
2023-04-30T04:09:36.694Z,469.3846
2023-04-30T04:10:38.958Z,470.6923
2023-04-30T04:11:41.313Z,473.8333
2023-04-30T04:12:43.615Z,472.6667
2023-04-30T04:13:45.994Z,472.4615
2023-04-30T04:14:48.317Z,471.9167
2023-04-30T04:15:50.737Z,472.3846
2023-04-30T04:16:52.967Z,473.0000
2023-04-30T04:17:55.353Z,473.6923
2023-04-30T04:18:57.674Z,473.4167
2023-04-30T04:19:59.997Z,474.4615
2023-04-30T04:21:02.332Z,474.3846
2023-04-30T04:22:04.666Z,471.6923
2023-04-30T04:23:07.135Z,471.6923
2023-04-30T04:24:09.333Z,470.5385
2023-04-30T04:25:11.678Z,470.0769
2023-04-30T04:26:14.048Z,471.6154
2023-04-30T04:27:16.356Z,472.2308
2023-04-30T04:28:18.662Z,470.6923
2023-04-30T04:29:21.078Z,473.1667
2023-04-30T04:30:23.340Z,472.0000
2023-04-30T04:31:25.764Z,472.4167
2023-04-30T04:32:28.094Z,471.6923
2023-04-30T04:33:30.385Z,469.5385
2023-04-30T04:34:32.744Z,467.7692
2023-04-30T04:35:35.053Z,468.6154
2023-04-30T04:36:37.453Z,467.6923
2023-04-30T04:37:39.701Z,467.3333
2023-04-30T04:38:42.184Z,466.0833
2023-04-30T04:39:44.398Z,465.2308
2023-04-30T04:40:46.951Z,465.4615
2023-04-30T04:41:49.037Z,465.0000
2023-04-30T04:42:51.378Z,463.9231
2023-04-30T04:43:53.738Z,463.3846
2023-04-30T04:44:56.098Z,462.9231
2023-04-30T04:45:58.395Z,462.0000
2023-04-30T04:47:00.716Z,464.4615
2023-04-30T04:48:03.139Z,464.0769
2023-04-30T04:49:05.399Z,464.9231
2023-04-30T04:50:07.777Z,464.1538
2023-04-30T04:51:10.068Z,465.3846
2023-04-30T04:52:12.393Z,465.1538
2023-04-30T04:53:14.799Z,468.7692
2023-04-30T04:54:17.192Z,466.2308
2023-04-30T04:55:19.507Z,464.5385
2023-04-30T04:56:21.771Z,466.1538
2023-04-30T04:57:24.137Z,466.6154
2023-04-30T04:58:26.513Z,468.9231
2023-04-30T04:59:28.780Z,470.6154
2023-04-30T05:00:31.103Z,471.3077
2023-04-30T05:01:33.436Z,470.7500
2023-04-30T05:02:35.978Z,470.0769
2023-04-30T05:03:38.289Z,467.8462
2023-04-30T05:04:40.420Z,465.1538
2023-04-30T05:05:42.908Z,467.7692
2023-04-30T05:06:45.201Z,467.7692
2023-04-30T05:07:47.466Z,466.3846
2023-04-30T05:08:49.788Z,468.2308
2023-04-30T05:09:52.160Z,469.6923
2023-04-30T05:10:54.442Z,469.6923
2023-04-30T05:11:56.777Z,470.5000
2023-04-30T05:12:59.196Z,471.3077
2023-04-30T05:14:01.432Z,471.1667
2023-04-30T05:15:03.770Z,470.5385
2023-04-30T05:16:06.146Z,471.6154
2023-04-30T05:17:08.444Z,470.9231
2023-04-30T05:18:10.817Z,471.0000
2023-04-30T05:19:13.113Z,470.1667
2023-04-30T05:20:15.561Z,471.0000
2023-04-30T05:21:17.818Z,470.6923
2023-04-30T05:22:20.157Z,475.0000
2023-04-30T05:23:22.464Z,473.9231
2023-04-30T05:24:24.778Z,472.1538
2023-04-30T05:25:27.238Z,467.1538
2023-04-30T05:26:29.473Z,466.7692
2023-04-30T05:27:31.913Z,465.7692
2023-04-30T05:28:34.169Z,465.8462
2023-04-30T05:29:36.480Z,462.3846
2023-04-30T05:30:38.818Z,463.6923
2023-04-30T05:31:41.151Z,461.9167
2023-04-30T05:32:43.700Z,461.6923
2023-04-30T05:33:46.159Z,462.3333
2023-04-30T05:34:48.468Z,461.3333
2023-04-30T05:35:50.452Z,460.0000
2023-04-30T05:36:52.974Z,462.8462
2023-04-30T05:37:55.223Z,464.6667
2023-04-30T05:38:57.474Z,463.8462
2023-04-30T05:40:00.001Z,462.0769
2023-04-30T05:41:02.324Z,461.4167
2023-04-30T05:42:04.467Z,464.4546
2023-04-30T05:43:06.816Z,465.5385
2023-04-30T05:44:09.499Z,464.6154
2023-04-30T05:45:11.593Z,462.5000
2023-04-30T05:46:14.037Z,462.4615
2023-04-30T05:47:16.152Z,464.4167
2023-04-30T05:48:18.514Z,463.4615
2023-04-30T05:49:20.876Z,462.6923
2023-04-30T05:50:23.154Z,461.8462
2023-04-30T05:51:25.742Z,463.3077
2023-04-30T05:52:28.287Z,460.8333
2023-04-30T05:53:30.197Z,460.9167
2023-04-30T05:54:32.508Z,462.4615
2023-04-30T05:55:34.892Z,463.4615
2023-04-30T05:56:37.187Z,462.6923
2023-04-30T05:57:39.519Z,462.2308
2023-04-30T05:58:41.947Z,463.0769
2023-04-30T05:59:44.204Z,464.2308
2023-04-30T06:00:46.527Z,465.5385
2023-04-30T06:01:49.079Z,464.2308
2023-04-30T06:02:51.300Z,464.0000
2023-04-30T06:03:53.623Z,462.2308
2023-04-30T06:04:56.095Z,463.9231
2023-04-30T06:05:58.407Z,463.3333
2023-04-30T06:07:00.745Z,462.6154
2023-04-30T06:08:02.976Z,462.6923
2023-04-30T06:09:05.393Z,462.6923
2023-04-30T06:10:07.653Z,460.0000
2023-04-30T06:11:09.989Z,461.5385
2023-04-30T06:12:12.395Z,463.3077
2023-04-30T06:13:14.834Z,460.2308
2023-04-30T06:14:17.043Z,461.3077
2023-04-30T06:15:26.869Z,462.6154
2023-04-30T06:16:21.691Z,460.0909
2023-04-30T06:17:24.020Z,457.8462
2023-04-30T06:18:26.358Z,460.3077
2023-04-30T06:19:28.691Z,463.0769
2023-04-30T06:20:31.067Z,462.1538
2023-04-30T06:21:33.400Z,462.7692
2023-04-30T06:22:35.937Z,464.3077
2023-04-30T06:23:38.033Z,465.8333
2023-04-30T06:24:40.390Z,463.9231
2023-04-30T06:25:42.778Z,463.1538
2023-04-30T06:26:45.034Z,465.7500
2023-04-30T06:27:47.412Z,462.0769
2023-04-30T06:28:50.017Z,459.6154
2023-04-30T06:29:52.295Z,461.6667
2023-04-30T06:30:54.432Z,460.6667
2023-04-30T06:31:56.781Z,461.7692
2023-04-30T06:32:59.138Z,461.6923
2023-04-30T06:34:01.449Z,462.3077
2023-04-30T06:35:03.776Z,462.3846
2023-04-30T06:36:06.145Z,463.0000
2023-04-30T06:37:08.448Z,463.9231
2023-04-30T06:38:10.778Z,464.8462
2023-04-30T06:39:13.111Z,464.3846
2023-04-30T06:40:15.456Z,462.6154
2023-04-30T06:41:17.806Z,464.0000
2023-04-30T06:42:20.154Z,467.1538
2023-04-30T06:43:22.479Z,467.3077
2023-04-30T06:44:25.059Z,465.8462
2023-04-30T06:45:27.183Z,464.6667
2023-04-30T06:46:29.647Z,466.5385
2023-04-30T06:47:31.829Z,466.0769
2023-04-30T06:48:34.186Z,466.6154
2023-04-30T06:49:36.480Z,467.0000
2023-04-30T06:50:38.856Z,469.4615
2023-04-30T06:51:41.210Z,470.1538
2023-04-30T06:52:43.530Z,468.3846
2023-04-30T06:53:45.821Z,466.3846
2023-04-30T06:54:48.217Z,466.6923
2023-04-30T06:55:50.531Z,469.6154
2023-04-30T06:56:52.903Z,469.3077
2023-04-30T06:57:55.193Z,467.7692
2023-04-30T06:58:57.534Z,466.6923
2023-04-30T06:59:59.836Z,464.8462
2023-04-30T07:01:02.194Z,464.0000
2023-04-30T07:02:04.541Z,463.9231
2023-04-30T07:03:06.930Z,464.2308
2023-04-30T07:04:09.190Z,463.2308
2023-04-30T07:05:11.827Z,462.7692
2023-04-30T07:06:13.894Z,462.7500
2023-04-30T07:07:16.208Z,464.8462
2023-04-30T07:08:18.557Z,464.5385
2023-04-30T07:09:20.888Z,464.4615
2023-04-30T07:10:23.207Z,464.0000
2023-04-30T07:11:25.544Z,463.6154
2023-04-30T07:12:27.893Z,463.3077
2023-04-30T07:13:30.211Z,463.4615
2023-04-30T07:14:32.550Z,463.0769
2023-04-30T07:15:34.971Z,462.4615
2023-04-30T07:16:37.215Z,462.6154
2023-04-30T07:17:39.644Z,464.2308
2023-04-30T07:18:42.030Z,461.3333
2023-04-30T07:19:44.242Z,461.8462
2023-04-30T07:20:46.574Z,462.3846
2023-04-30T07:21:48.924Z,463.6154
2023-04-30T07:22:51.241Z,462.9231
2023-04-30T07:23:53.620Z,461.6154
2023-04-30T07:24:55.931Z,456.6154
2023-04-30T07:25:58.260Z,452.4615
2023-04-30T07:27:00.677Z,454.0769
2023-04-30T07:28:02.936Z,452.6923
2023-04-30T07:29:05.472Z,452.0000
2023-04-30T07:30:07.659Z,454.1818
2023-04-30T07:31:09.995Z,457.9231
2023-04-30T07:32:12.311Z,458.3846
2023-04-30T07:33:14.703Z,460.5385
2023-04-30T07:34:16.987Z,463.0769
2023-04-30T07:35:19.395Z,461.5385
2023-04-30T07:36:21.646Z,460.4615
2023-04-30T07:37:23.989Z,458.2308
2023-04-30T07:38:26.343Z,458.3846
2023-04-30T07:39:28.675Z,458.1538
2023-04-30T07:40:36.252Z,458.3077
2023-04-30T07:41:33.339Z,458.6364
2023-04-30T07:42:35.847Z,458.1538
2023-04-30T07:43:38.066Z,460.4615
2023-04-30T07:44:40.377Z,459.4615
2023-04-30T07:45:42.869Z,456.3077
2023-04-30T07:46:45.090Z,456.0769
2023-04-30T07:47:47.396Z,458.8462
2023-04-30T07:48:49.782Z,459.5000
2023-04-30T07:49:52.111Z,458.5385
2023-04-30T07:50:54.573Z,458.4615
2023-04-30T07:51:56.955Z,460.9091
2023-04-30T07:52:59.112Z,460.4167
2023-04-30T07:54:01.402Z,459.6154
2023-04-30T07:55:03.772Z,457.0769
2023-04-30T07:56:06.196Z,455.3846
2023-04-30T07:57:08.429Z,456.1538
2023-04-30T07:58:10.824Z,456.7692
2023-04-30T07:59:13.111Z,455.6154
2023-04-30T08:00:15.978Z,457.0000
2023-04-30T08:01:17.809Z,459.0833
2023-04-30T08:02:20.208Z,458.5385
2023-04-30T08:03:22.526Z,456.6154
2023-04-30T08:04:24.941Z,454.3077
2023-04-30T08:05:27.137Z,453.8462
2023-04-30T08:06:29.540Z,455.9231
2023-04-30T08:07:31.820Z,460.8333
2023-04-30T08:08:34.153Z,458.2308
2023-04-30T08:09:36.539Z,458.9231
2023-04-30T08:10:38.856Z,456.4167
2023-04-30T08:11:41.188Z,456.0769
2023-04-30T08:12:43.575Z,454.9231
2023-04-30T08:13:45.845Z,453.3077
2023-04-30T08:14:48.174Z,451.6923
2023-04-30T08:15:50.524Z,450.9167
2023-04-30T08:16:52.975Z,449.0000
2023-04-30T08:17:55.230Z,445.8462
2023-04-30T08:18:57.561Z,443.9231
2023-04-30T08:19:59.873Z,444.3846
2023-04-30T08:21:02.203Z,447.1538
2023-04-30T08:22:04.540Z,447.1538
2023-04-30T08:23:06.921Z,448.0000
2023-04-30T08:24:09.209Z,451.3333
2023-04-30T08:25:11.725Z,450.2308
2023-04-30T08:26:13.893Z,447.4615
2023-04-30T08:27:16.241Z,444.5000
2023-04-30T08:28:18.565Z,444.9167
2023-04-30T08:29:20.936Z,443.6154
2023-04-30T08:30:23.374Z,443.0769
2023-04-30T08:31:25.731Z,442.8462
2023-04-30T08:32:28.021Z,440.0833
2023-04-30T08:33:30.413Z,439.9231
2023-04-30T08:34:32.635Z,440.3077
2023-04-30T08:35:35.008Z,443.1538
2023-04-30T08:36:37.321Z,446.5385
2023-04-30T08:37:39.627Z,447.4615
2023-04-30T08:38:41.959Z,447.1538
2023-04-30T08:39:44.346Z,444.9231
2023-04-30T08:40:51.575Z,441.8462
2023-04-30T08:41:48.962Z,440.3636
2023-04-30T08:42:51.340Z,438.4615
2023-04-30T08:43:53.679Z,439.3846
2023-04-30T08:44:56.025Z,440.6923
2023-04-30T08:45:58.327Z,440.3077
2023-04-30T08:47:00.674Z,440.8462
2023-04-30T08:48:03.154Z,440.3077
2023-04-30T08:49:05.355Z,439.0000
2023-04-30T08:50:07.835Z,436.6923
2023-04-30T08:51:09.988Z,434.9231
2023-04-30T08:52:12.369Z,433.6154
2023-04-30T08:53:14.712Z,436.1538
2023-04-30T08:54:17.016Z,437.2308
2023-04-30T08:55:19.356Z,435.7692
2023-04-30T08:56:23.109Z,434.4615
2023-04-30T08:57:24.032Z,435.8333
2023-04-30T08:58:26.375Z,433.2500
2023-04-30T08:59:28.709Z,432.6667
2023-04-30T09:00:31.134Z,431.6154
2023-04-30T09:01:33.449Z,433.5385
2023-04-30T09:02:35.832Z,432.5000
2023-04-30T09:03:38.182Z,430.6154
2023-04-30T09:04:40.583Z,428.4615
2023-04-30T09:05:42.785Z,429.6923
2023-04-30T09:06:45.201Z,432.3077
2023-04-30T09:08:49.870Z,435.5833
2023-04-30T09:09:52.171Z,435.7692
2023-04-30T09:10:54.427Z,435.0000
2023-04-30T09:11:56.761Z,434.5385
2023-04-30T09:12:59.097Z,432.4167
2023-04-30T09:14:01.463Z,434.7692
2023-04-30T09:15:03.914Z,437.5385
2023-04-30T09:16:06.160Z,437.7500
2023-04-30T09:17:08.439Z,435.2308
2023-04-30T09:18:10.895Z,434.7692
2023-04-30T09:19:13.127Z,426.7692
2023-04-30T09:20:15.474Z,426.3846
2023-04-30T09:21:17.798Z,429.0769
2023-04-30T09:22:20.137Z,430.1538
2023-04-30T09:23:22.488Z,429.9231
2023-04-30T09:24:24.869Z,429.7692
2023-04-30T09:25:27.173Z,429.0833
2023-04-30T09:26:29.519Z,431.6154
2023-04-30T09:27:31.842Z,431.0769
2023-04-30T09:28:34.167Z,429.1538
2023-04-30T09:29:36.519Z,427.6923
2023-04-30T09:30:38.960Z,425.6154
2023-04-30T09:31:41.214Z,425.4615
2023-04-30T09:32:43.542Z,427.6154
2023-04-30T09:33:46.040Z,428.3846
2023-04-30T09:34:48.215Z,427.3333
2023-04-30T09:35:50.531Z,428.0769
2023-04-30T09:36:52.908Z,429.0000
2023-04-30T09:37:55.244Z,429.4615
2023-04-30T09:38:57.558Z,426.0000
2023-04-30T09:39:59.893Z,426.0000
2023-04-30T09:41:02.230Z,425.4615
2023-04-30T09:42:04.571Z,426.4615
2023-04-30T09:43:06.946Z,426.7692
2023-04-30T09:44:09.291Z,426.6923
2023-04-30T09:45:11.590Z,425.3846
2023-04-30T09:46:13.959Z,424.3846
2023-04-30T09:47:16.267Z,425.6923
2023-04-30T09:48:18.685Z,426.1538
2023-04-30T09:49:20.979Z,426.3077
2023-04-30T09:50:23.350Z,428.5385
2023-04-30T09:51:25.652Z,430.3077
2023-04-30T09:52:28.005Z,429.0000
2023-04-30T09:53:30.314Z,430.1538
2023-04-30T09:54:32.697Z,429.0000
2023-04-30T09:55:35.032Z,428.4615
2023-04-30T09:56:37.339Z,432.3846
2023-04-30T09:57:39.674Z,431.3333
2023-04-30T09:58:42.016Z,428.9231
2023-04-30T09:59:44.365Z,430.5000
2023-04-30T10:00:46.907Z,430.0769
2023-04-30T10:01:49.047Z,427.8333
2023-04-30T10:02:51.414Z,427.0000
2023-04-30T10:03:54.042Z,427.8462
2023-04-30T10:04:56.115Z,428.1667
2023-04-30T10:05:58.431Z,430.6923
2023-04-30T10:07:00.822Z,430.8462
2023-04-30T10:08:03.174Z,431.1538
2023-04-30T10:09:05.546Z,429.1667
2023-04-30T10:10:07.892Z,428.5385
2023-04-30T10:11:10.199Z,425.5385
2023-04-30T10:12:12.536Z,423.1538
2023-04-30T10:13:15.165Z,421.8462
2023-04-30T10:14:17.227Z,419.8333
2023-04-30T10:15:19.567Z,419.7692
2023-04-30T10:16:22.967Z,421.2308
2023-04-30T10:17:24.280Z,420.0000
2023-04-30T10:18:26.609Z,418.2308
2023-04-30T10:19:28.963Z,419.3077
2023-04-30T10:20:32.024Z,419.3077
2023-04-30T10:21:33.629Z,414.8333
2023-04-30T10:22:36.020Z,419.1538
2023-04-30T10:23:38.328Z,419.6154
2023-04-30T10:24:40.670Z,418.6923
2023-04-30T10:25:43.076Z,417.0000
2023-04-30T10:26:45.375Z,416.0000
2023-04-30T10:27:47.704Z,420.0769
2023-04-30T10:28:50.120Z,420.8462
2023-04-30T10:29:52.438Z,422.6923
2023-04-30T10:30:54.773Z,422.6923
2023-04-30T10:31:57.155Z,422.6923
2023-04-30T10:32:59.500Z,421.4615
2023-04-30T10:34:01.789Z,422.2308
2023-04-30T10:35:04.166Z,421.0000
2023-04-30T10:36:06.515Z,419.1538
2023-04-30T10:37:08.939Z,415.5385
2023-04-30T10:38:11.274Z,416.5385
2023-04-30T10:39:13.580Z,416.6154
2023-04-30T10:40:15.855Z,415.8462
2023-04-30T10:41:18.208Z,413.8462
2023-04-30T10:42:20.545Z,415.9231
2023-04-30T10:43:22.949Z,417.3077
2023-04-30T10:44:25.240Z,415.5385
2023-04-30T10:45:27.589Z,413.6154
2023-04-30T10:46:29.965Z,413.1538
2023-04-30T10:47:32.314Z,414.5000
2023-04-30T10:48:34.625Z,415.0000
2023-04-30T10:49:36.975Z,414.6154
2023-04-30T10:50:39.301Z,414.5000
2023-04-30T10:51:41.699Z,414.3846
2023-04-30T10:52:43.989Z,416.0000
2023-04-30T10:53:46.348Z,416.1538
2023-04-30T10:54:48.699Z,418.2308
2023-04-30T10:55:51.037Z,417.4615
2023-04-30T10:56:53.406Z,417.3077
2023-04-30T10:57:55.886Z,418.6154
2023-04-30T10:58:58.072Z,416.0000
2023-04-30T11:00:00.419Z,417.9231
2023-04-30T11:01:02.922Z,414.6154
2023-04-30T11:02:05.120Z,408.5833
2023-04-30T11:03:07.841Z,408.2500
2023-04-30T11:04:09.790Z,408.1667
2023-04-30T11:05:12.817Z,406.1538
2023-04-30T11:06:14.552Z,406.0833
2023-04-30T11:07:16.888Z,406.3077
2023-04-30T11:08:19.165Z,409.9231
2023-04-30T11:09:21.502Z,414.5385
2023-04-30T11:10:23.920Z,414.7692
2023-04-30T11:11:26.191Z,413.0000
2023-04-30T11:12:28.728Z,411.3846
2023-04-30T11:13:30.925Z,411.5000
2023-04-30T11:14:33.218Z,412.5385
2023-04-30T11:15:35.635Z,413.2308
2023-04-30T11:16:37.955Z,414.1667
2023-04-30T11:17:40.323Z,415.5385
2023-04-30T11:18:42.601Z,416.1538
2023-04-30T11:19:44.934Z,412.4615
2023-04-30T11:20:47.314Z,410.6923
2023-04-30T11:21:49.685Z,410.3077
2023-04-30T11:22:52.017Z,409.4615
2023-04-30T11:23:54.426Z,408.9231
2023-04-30T11:24:56.644Z,407.8462
2023-04-30T11:25:58.989Z,406.3333
2023-04-30T11:27:01.330Z,409.2308
2023-04-30T11:28:03.692Z,412.3333
2023-04-30T11:29:06.225Z,410.9231
2023-04-30T11:30:08.389Z,411.8462
2023-04-30T11:31:10.719Z,412.0833
2023-04-30T11:32:13.046Z,413.7692
2023-04-30T11:33:15.402Z,414.9231
2023-04-30T11:34:17.836Z,413.9167
2023-04-30T11:35:20.091Z,414.6923
2023-04-30T11:36:22.421Z,412.1667
2023-04-30T11:37:24.750Z,412.6154
2023-04-30T11:38:27.139Z,413.9231
2023-04-30T11:39:29.440Z,412.6154
2023-04-30T11:40:31.779Z,412.9231
2023-04-30T11:41:34.111Z,412.6154
2023-04-30T11:42:36.558Z,410.3077
2023-04-30T11:43:38.863Z,408.5385
2023-04-30T11:44:41.174Z,410.6154
2023-04-30T11:45:43.475Z,410.5385
2023-04-30T11:46:45.893Z,410.6154
2023-04-30T11:47:48.303Z,410.5385
2023-04-30T11:48:50.505Z,410.5385
2023-04-30T11:49:53.295Z,411.4615
2023-04-30T11:50:55.213Z,410.5833
2023-04-30T11:51:57.545Z,408.6154
2023-04-30T11:52:59.854Z,409.6154
2023-04-30T11:54:02.335Z,412.5833
2023-04-30T11:55:04.518Z,412.4167
2023-04-30T11:56:06.947Z,412.0833
2023-04-30T11:57:09.192Z,412.4615
2023-04-30T11:58:11.617Z,413.6923
2023-04-30T11:59:13.888Z,414.7273
2023-04-30T12:00:16.282Z,412.7500
2023-04-30T12:01:18.571Z,414.8462
2023-04-30T12:02:21.023Z,416.0000
2023-04-30T12:03:23.302Z,412.8462
2023-04-30T12:04:25.623Z,409.3846
2023-04-30T12:05:27.970Z,409.0769
2023-04-30T12:06:30.362Z,409.8462
2023-04-30T12:07:32.602Z,411.9231
2023-04-30T12:08:34.979Z,411.8462
2023-04-30T12:09:37.292Z,411.1538
2023-04-30T12:10:39.632Z,412.9231
2023-04-30T12:11:41.987Z,411.4615
2023-04-30T12:12:44.329Z,412.0769